Time;durP1;ratioP1;P1;durP2;ratioP2;P2;SDS_P1;SDS_P2;PMS_P1;PMS_P2;Temp;Humidity;BMP_temperature;BMP_pressure;BME280_temperature;BME280_humidity;BME280_pressure;Samples;Min_cycle;Max_cycle;Signal;HPM_P1;HPM_P2
2022/06/07 00:00:08;;;;;;;13.85;6.00;;;12.10;99.90;;;;;;5059810;28;20032;-83
2022/06/07 00:02:35;;;;;;;14.57;5.90;;;12.10;99.90;;;;;;5056330;28;20102;-85
2022/06/07 00:05:02;;;;;;;16.45;5.97;;;12.10;99.90;;;;;;5057312;28;20056;-84
2022/06/07 00:07:28;;;;;;;12.80;6.65;;;12.10;99.90;;;;;;5075434;28;20049;-85
2022/06/07 00:09:54;;;;;;;10.23;5.47;;;12.20;99.90;;;;;;5074163;28;20106;-85
2022/06/07 00:12:21;;;;;;;9.45;6.18;;;12.10;99.90;;;;;;5055076;28;20123;-84
2022/06/07 00:14:48;;;;;;;9.02;5.90;;;12.20;99.90;;;;;;5036518;28;20049;-84
2022/06/07 00:17:14;;;;;;;14.70;5.90;;;12.20;99.90;;;;;;5055259;28;20053;-83
2022/06/07 00:19:40;;;;;;;10.73;6.95;;;12.20;99.90;;;;;;5054963;28;20365;-85
2022/06/07 00:22:07;;;;;;;15.88;6.97;;;12.20;99.90;;;;;;5085028;28;20089;-87
2022/06/07 00:24:33;;;;;;;13.77;7.18;;;12.20;99.90;;;;;;5059530;28;20048;-85
2022/06/07 00:26:59;;;;;;;25.98;9.02;;;12.20;99.90;;;;;;5055089;28;20048;-84
2022/06/07 00:29:27;;;;;;;18.60;8.02;;;11.20;99.90;;;;;;5054246;28;20048;-84
2022/06/07 00:31:53;;;;;;;14.32;7.30;;;12.20;99.90;;;;;;5054853;28;20128;-84
2022/06/07 00:34:19;;;;;;;15.02;7.15;;;12.20;99.90;;;;;;5052724;28;20044;-82
2022/06/07 00:36:45;;;;;;;13.18;7.10;;;12.20;99.90;;;;;;5054376;28;20408;-83
2022/06/07 00:39:11;;;;;;;15.15;7.88;;;13.30;99.90;;;;;;5056942;28;20046;-83
2022/06/07 00:41:41;;;;;;;12.00;7.07;;;12.20;99.90;;;;;;5056385;28;20189;-85
2022/06/07 00:44:36;;;;;;;13.63;7.50;;;12.20;99.90;;;;;;5071765;28;20114;-84
2022/06/07 00:47:10;;;;;;;14.55;7.03;;;12.20;99.90;;;;;;5054577;28;20409;-86
2022/06/07 00:49:56;;;;;;;14.25;7.53;;;12.20;99.90;;;;;;5053682;28;20059;-84
2022/06/07 00:52:24;;;;;;;15.40;7.85;;;12.20;99.90;;;;;;5054146;28;20590;-84
2022/06/07 00:54:50;;;;;;;11.52;8.00;;;12.20;99.90;;;;;;5059298;28;20446;-83
2022/06/07 00:57:17;;;;;;;13.05;7.47;;;12.20;99.90;;;;;;5055518;28;20190;-83
2022/06/07 00:59:43;;;;;;;10.50;7.47;;;12.20;99.90;;;;;;5069101;28;20495;-82
2022/06/07 01:02:09;;;;;;;14.55;7.43;;;12.30;99.90;;;;;;5054279;28;20045;-84
2022/06/07 01:04:35;;;;;;;13.93;7.00;;;12.20;99.90;;;;;;5054831;28;20047;-88
2022/06/07 01:12:55;;;;;;;14.25;6.93;;;12.30;99.90;;;;;;5073829;28;20043;-83
2022/06/07 01:15:21;;;;;;;19.83;7.88;;;12.30;99.90;;;;;;5070952;28;20115;-85
2022/06/07 01:17:47;;;;;;;13.50;6.88;;;12.30;99.90;;;;;;5054511;28;20045;-86
2022/06/07 01:20:13;;;;;;;12.30;7.15;;;12.30;99.90;;;;;;5055176;28;20040;-84
2022/06/07 01:22:39;;;;;;;17.45;7.10;;;12.30;99.90;;;;;;5061911;28;20488;-82
2022/06/07 01:25:06;;;;;;;15.15;7.55;;;12.30;99.90;;;;;;5071416;28;20045;-82
2022/06/07 01:27:32;;;;;;;15.50;7.25;;;12.40;99.90;;;;;;5060246;28;20488;-85
2022/06/07 01:29:58;;;;;;;14.63;6.78;;;12.30;99.90;;;;;;5059248;28;20052;-85
2022/06/07 01:32:26;;;;;;;15.95;7.95;;;11.20;99.90;;;;;;5039995;28;20037;-84
2022/06/07 01:34:53;;;;;;;16.02;6.20;;;12.40;99.90;;;;;;5074679;28;20037;-82
2022/06/07 01:37:20;;;;;;;8.25;6.20;;;12.40;99.90;;;;;;5056580;28;20548;-83
2022/06/07 01:42:31;;;;;;;15.05;7.75;;;12.40;99.90;;;;;;5054887;28;20449;-83
2022/06/07 01:44:57;;;;;;;14.63;6.50;;;12.40;99.90;;;;;;5057521;28;20040;-82
2022/06/07 01:47:27;;;;;;;9.13;6.25;;;12.40;99.90;;;;;;5074475;28;20079;-83
2022/06/07 01:49:53;;;;;;;14.27;6.78;;;12.40;99.90;;;;;;5069911;28;20507;-83
2022/06/07 01:52:22;;;;;;;13.18;6.60;;;12.40;99.90;;;;;;5055132;28;20037;-82
2022/06/07 01:54:48;;;;;;;19.30;7.80;;;12.40;99.90;;;;;;5059088;28;20064;-83
2022/06/07 01:57:15;;;;;;;12.48;6.88;;;12.50;99.90;;;;;;5063474;28;20507;-83
2022/06/07 01:59:41;;;;;;;16.85;7.45;;;12.40;99.90;;;;;;5053394;28;20054;-83
2022/06/07 02:02:08;;;;;;;13.30;6.72;;;12.40;99.90;;;;;;5061018;28;20397;-86
2022/06/07 02:04:38;;;;;;;10.52;6.72;;;12.40;99.90;;;;;;5053055;28;20389;-85
2022/06/07 02:07:06;;;;;;;11.23;6.90;;;12.40;99.90;;;;;;5056698;28;20462;-83
2022/06/07 02:09:32;;;;;;;14.27;7.05;;;12.50;99.90;;;;;;5057808;28;20063;-85
2022/06/07 02:11:59;;;;;;;17.25;7.40;;;12.50;99.90;;;;;;5069592;28;20492;-81
2022/06/07 02:14:25;;;;;;;13.15;7.38;;;12.50;99.90;;;;;;5052027;28;20523;-81
2022/06/07 02:16:51;;;;;;;11.18;6.65;;;12.50;99.90;;;;;;5052652;28;20134;-83
2022/06/07 02:19:17;;;;;;;15.40;7.40;;;12.50;99.90;;;;;;5069214;28;20080;-83
2022/06/07 02:21:43;;;;;;;15.65;7.95;;;12.50;99.90;;;;;;5080067;28;20044;-83
2022/06/07 02:24:10;;;;;;;11.63;6.65;;;12.50;99.90;;;;;;5073882;28;20047;-83
2022/06/07 02:26:35;;;;;;;12.50;7.13;;;12.50;99.90;;;;;;5062512;28;20060;-82
2022/06/07 02:29:05;;;;;;;12.73;7.25;;;12.50;99.90;;;;;;5052638;28;20041;-82
2022/06/07 02:31:33;;;;;;;11.63;7.22;;;12.50;99.90;;;;;;5069179;28;20048;-82
2022/06/07 02:34:02;;;;;;;15.48;7.20;;;12.50;99.90;;;;;;5068446;28;20067;-81
2022/06/07 02:36:28;;;;;;;16.15;7.72;;;12.50;99.90;;;;;;5083981;28;20048;-82
2022/06/07 02:38:54;;;;;;;11.68;7.93;;;12.50;99.90;;;;;;5063376;28;20098;-84
2022/06/07 02:41:22;;;;;;;13.75;7.68;;;12.50;99.90;;;;;;5052728;28;20064;-83
2022/06/07 02:43:48;;;;;;;13.63;8.10;;;12.50;99.90;;;;;;5035897;28;20127;-82
2022/06/07 02:46:14;;;;;;;14.43;8.13;;;12.50;99.90;;;;;;5053340;28;20147;-83
2022/06/07 02:48:40;;;;;;;14.75;8.20;;;12.50;99.90;;;;;;5052786;28;20059;-83
2022/06/07 02:51:06;;;;;;;12.05;8.35;;;12.50;99.90;;;;;;5053566;28;20162;-83
2022/06/07 02:53:32;;;;;;;15.75;8.25;;;12.50;99.90;;;;;;5064168;28;20514;-81
2022/06/07 02:55:58;;;;;;;17.95;8.27;;;12.50;99.90;;;;;;5072539;28;20044;-82
2022/06/07 02:58:25;;;;;;;14.25;8.90;;;12.50;99.90;;;;;;5063097;28;20094;-82
2022/06/07 03:00:51;;;;;;;18.70;8.60;;;12.50;99.90;;;;;;5054084;28;20089;-82
2022/06/07 03:03:17;;;;;;;13.38;8.65;;;12.50;99.90;;;;;;5053446;28;20040;-82
2022/06/07 03:05:43;;;;;;;15.20;8.95;;;12.50;99.90;;;;;;5052858;28;20376;-83
2022/06/07 03:08:09;;;;;;;17.23;8.00;;;12.50;99.90;;;;;;5058225;28;20052;-82
2022/06/07 03:10:35;;;;;;;17.08;7.82;;;12.60;99.90;;;;;;5061838;28;20045;-82
2022/06/07 03:13:01;;;;;;;12.57;7.70;;;12.50;99.90;;;;;;5056636;28;20479;-82
2022/06/07 03:15:28;;;;;;;16.30;8.60;;;12.60;99.90;;;;;;5055396;28;20476;-82
2022/06/07 03:17:54;;;;;;;17.58;8.27;;;12.60;99.90;;;;;;5050796;28;20552;-84
2022/06/07 03:20:20;;;;;;;13.48;7.90;;;12.60;99.90;;;;;;5052121;28;20092;-82
2022/06/07 03:22:46;;;;;;;11.07;7.30;;;12.60;99.90;;;;;;5062321;28;20041;-84
2022/06/07 03:25:12;;;;;;;14.50;8.48;;;12.60;99.90;;;;;;5052396;28;20044;-82
2022/06/07 03:27:38;;;;;;;16.25;8.27;;;12.60;99.90;;;;;;5053167;28;20504;-83
2022/06/07 03:30:06;;;;;;;13.05;7.80;;;12.60;99.90;;;;;;5050971;28;20088;-84
2022/06/07 03:32:33;;;;;;;11.63;7.55;;;12.60;99.90;;;;;;5051908;28;20424;-83
2022/06/07 03:34:59;;;;;;;11.98;6.93;;;12.60;99.90;;;;;;5035348;28;20048;-85
2022/06/07 03:37:25;;;;;;;11.43;7.30;;;12.60;99.90;;;;;;5079802;28;20047;-83
2022/06/07 03:39:51;;;;;;;14.85;7.72;;;12.60;99.90;;;;;;5052687;28;20419;-82
2022/06/07 03:42:18;;;;;;;19.48;8.05;;;12.60;99.90;;;;;;5055407;28;20392;-82
2022/06/07 03:44:48;;;;;;;15.27;7.90;;;12.60;99.90;;;;;;5051662;28;20056;-84
2022/06/07 03:47:18;;;;;;;18.42;7.65;;;12.60;99.90;;;;;;5051852;28;20370;-84
2022/06/07 03:49:46;;;;;;;15.27;7.75;;;12.60;99.90;;;;;;5056013;28;20101;-83
2022/06/07 03:52:13;;;;;;;13.38;7.93;;;12.60;99.90;;;;;;5067306;28;20063;-83
2022/06/07 03:54:39;;;;;;;10.85;6.47;;;12.60;99.90;;;;;;5071458;28;20055;-84
2022/06/07 03:57:06;;;;;;;16.45;6.38;;;12.60;99.90;;;;;;5069985;28;20056;-85
2022/06/07 03:59:32;;;;;;;10.20;5.43;;;12.60;99.90;;;;;;5071869;28;20045;-84
2022/06/07 04:01:58;;;;;;;8.93;4.68;;;12.60;99.90;;;;;;5074885;28;20514;-84
2022/06/07 04:04:24;;;;;;;13.15;4.97;;;12.60;99.90;;;;;;5075247;28;20049;-86
2022/06/07 04:09:42;;;;;;;;;;;12.50;99.90;;;;;;5092369;28;20186;-86
2022/06/07 04:12:14;;;;;;;7.47;3.75;;;12.50;99.90;;;;;;5058700;28;19928;-84
2022/06/07 04:14:43;;;;;;;13.18;4.20;;;12.40;99.90;;;;;;5090345;28;20044;-87
2022/06/07 04:17:09;;;;;;;8.20;3.92;;;12.40;99.90;;;;;;5043053;28;20134;-86
2022/06/07 04:19:36;;;;;;;13.65;4.35;;;12.40;99.90;;;;;;5055504;28;20052;-84
2022/06/07 04:22:04;;;;;;;10.93;4.35;;;12.40;99.90;;;;;;5067143;28;20075;-86
2022/06/07 04:24:33;;;;;;;11.63;4.75;;;12.30;99.90;;;;;;5058728;28;20055;-87
2022/06/07 04:27:00;;;;;;;8.80;4.25;;;12.20;99.90;;;;;;5074402;28;20075;-87
2022/06/07 04:29:26;;;;;;;12.40;5.20;;;12.20;99.90;;;;;;5091689;28;20050;-86
2022/06/07 04:31:52;;;;;;;13.10;5.18;;;12.20;99.90;;;;;;5085311;28;20037;-87
2022/06/07 04:34:18;;;;;;;11.25;4.97;;;12.30;99.90;;;;;;5074085;28;20389;-88
2022/06/07 04:36:45;;;;;;;13.07;4.75;;;12.10;99.90;;;;;;5066504;28;20045;-86
2022/06/07 04:39:12;;;;;;;14.23;5.07;;;12.10;99.90;;;;;;5054832;28;20049;-85
2022/06/07 04:41:39;;;;;;;18.20;6.03;;;12.10;99.90;;;;;;5055146;28;20116;-83
2022/06/07 04:44:05;;;;;;;10.18;5.85;;;12.10;99.90;;;;;;5065393;28;20044;-85
2022/06/07 04:46:31;;;;;;;11.73;5.60;;;12.10;99.90;;;;;;5056874;28;20049;-85
2022/06/07 04:48:57;;;;;;;11.23;6.10;;;12.10;99.90;;;;;;5074751;28;20037;-85
2022/06/07 04:51:28;;;;;;;14.98;7.13;;;12.10;99.90;;;;;;5073631;28;20037;-86
2022/06/07 04:53:56;;;;;;;9.77;5.68;;;12.00;99.90;;;;;;5073889;28;20044;-84
2022/06/07 04:56:24;;;;;;;14.80;7.60;;;12.00;99.90;;;;;;5060764;28;20067;-83
2022/06/07 04:58:51;;;;;;;14.45;7.30;;;12.10;99.90;;;;;;5054637;28;20091;-85
2022/06/07 05:01:23;;;;;;;14.85;6.95;;;12.10;99.90;;;;;;5056316;28;20483;-83
2022/06/07 05:03:49;;;;;;;10.77;6.32;;;12.10;99.90;;;;;;5076367;28;20076;-87
2022/06/07 05:06:17;;;;;;;14.93;6.80;;;12.10;99.90;;;;;;5074177;28;20091;-84
2022/06/07 05:08:43;;;;;;;13.27;6.30;;;12.10;99.90;;;;;;5058910;28;20067;-82
2022/06/07 05:11:09;;;;;;;14.15;7.13;;;12.20;99.90;;;;;;5053911;28;20065;-83
2022/06/07 05:13:35;;;;;;;18.48;8.48;;;12.20;99.90;;;;;;5067743;28;20048;-85
2022/06/07 05:16:01;;;;;;;12.43;5.75;;;12.20;99.90;;;;;;5063616;28;20037;-85
2022/06/07 05:18:26;;;;;;;11.68;5.97;;;12.20;99.90;;;;;;5053740;28;20044;-88
2022/06/07 05:20:52;;;;;;;10.65;5.80;;;12.30;99.90;;;;;;5063416;28;20178;-86
2022/06/07 05:23:18;;;;;;;12.07;6.53;;;12.30;99.90;;;;;;5071695;28;20071;-83
2022/06/07 05:26:33;;;;;;;15.95;5.47;;;12.30;99.90;;;;;;5073261;28;20052;-88
2022/06/07 05:29:00;;;;;;;7.50;4.13;;;12.30;99.90;;;;;;5033007;28;20045;-86
2022/06/07 05:31:25;;;;;;;11.57;4.75;;;12.30;99.90;;;;;;5054142;28;20068;-84
2022/06/07 05:33:52;;;;;;;10.13;3.58;;;12.30;99.90;;;;;;5058776;28;20072;-85
2022/06/07 05:36:19;;;;;;;6.95;3.20;;;12.30;99.90;;;;;;5073541;28;20041;-88
2022/06/07 05:38:46;;;;;;;11.63;3.00;;;12.30;99.90;;;;;;5069158;28;20075;-88
2022/06/07 05:41:34;;;;;;;8.23;3.20;;;12.30;99.90;;;;;;5075650;28;20040;-89
2022/06/07 05:44:01;;;;;;;6.65;2.55;;;12.30;99.90;;;;;;5072993;28;20114;-86
2022/06/07 05:46:26;;;;;;;10.85;3.05;;;12.30;99.90;;;;;;5074883;28;20551;-87
2022/06/07 05:48:52;;;;;;;11.65;4.05;;;12.30;99.90;;;;;;5074328;28;20111;-86
2022/06/07 05:51:19;;;;;;;6.75;3.00;;;12.30;99.90;;;;;;5072069;28;20503;-86
2022/06/07 05:53:45;;;;;;;5.95;2.47;;;12.20;99.90;;;;;;5076270;28;20468;-87
2022/06/07 05:56:14;;;;;;;5.53;2.28;;;12.20;99.90;;;;;;5068010;28;20069;-89
2022/06/07 05:58:39;;;;;;;6.03;2.63;;;12.20;99.90;;;;;;5072348;28;20438;-86
2022/06/07 06:01:07;;;;;;;6.65;3.03;;;12.20;99.90;;;;;;5085466;28;20040;-84
2022/06/07 06:03:34;;;;;;;6.13;2.83;;;12.30;99.90;;;;;;5053325;28;20506;-83
2022/06/07 06:06:00;;;;;;;9.65;3.20;;;12.20;99.90;;;;;;5061411;28;20109;-84
2022/06/07 06:11:19;;;;;;;8.18;3.72;;;12.20;99.90;;;;;;5075255;28;20068;-86
2022/06/07 06:13:45;;;;;;;;;;;12.30;99.90;;;;;;5053523;28;20033;-84
2022/06/07 06:16:14;;;;;;;10.13;3.13;;;12.20;99.90;;;;;;5042848;28;19927;-86
2022/06/07 06:18:44;;;;;;;8.55;2.00;;;12.20;99.90;;;;;;5065104;28;20041;-84
2022/06/07 06:21:10;;;;;;;6.00;2.50;;;12.10;99.90;;;;;;5070421;28;20044;-87
2022/06/07 06:23:40;;;;;;;9.10;2.95;;;12.10;99.90;;;;;;5073993;28;20029;-91
2022/06/07 06:26:09;;;;;;;9.45;3.05;;;12.10;99.90;;;;;;5071305;28;20052;-86
2022/06/07 06:28:36;;;;;;;5.78;2.08;;;12.10;99.90;;;;;;5072783;28;20057;-87
2022/06/07 06:31:07;;;;;;;7.43;2.70;;;12.10;99.90;;;;;;5053062;28;20433;-88
2022/06/07 06:33:44;;;;;;;6.75;2.28;;;12.00;99.90;;;;;;5051999;28;20369;-87
2022/06/07 06:36:13;;;;;;;7.88;1.83;;;12.00;99.90;;;;;;5069589;28;20714;-87
2022/06/07 06:38:38;;;;;;;4.38;1.70;;;12.00;99.90;;;;;;5069312;28;20048;-86
2022/06/07 06:41:29;;;;;;;4.43;1.77;;;12.00;99.90;;;;;;5036225;28;20049;-89
2022/06/07 06:43:56;;;;;;;6.80;1.35;;;12.00;99.90;;;;;;5072758;28;20047;-88
2022/06/07 06:46:28;;;;;;;9.30;1.85;;;11.90;99.90;;;;;;5073248;28;20053;-88
2022/06/07 06:48:54;;;;;;;6.63;1.55;;;11.90;99.90;;;;;;5072862;28;20515;-87
2022/06/07 06:51:22;;;;;;;9.05;2.80;;;11.90;99.90;;;;;;5070128;28;20052;-85
2022/06/07 06:53:49;;;;;;;7.78;1.45;;;11.80;99.90;;;;;;5060562;28;20115;-85
2022/06/07 06:56:20;;;;;;;4.72;1.35;;;11.80;99.90;;;;;;5073034;28;20040;-89
2022/06/07 06:58:46;;;;;;;9.05;2.35;;;11.90;99.90;;;;;;5072976;28;20118;-87
2022/06/07 07:01:22;;;;;;;7.30;2.10;;;11.90;99.90;;;;;;5073397;28;20814;-87
2022/06/07 07:03:48;;;;;;;6.57;2.03;;;11.80;99.90;;;;;;5061360;28;20079;-88
2022/06/07 07:06:15;;;;;;;11.68;2.95;;;11.80;99.90;;;;;;5076450;28;20105;-88
2022/06/07 07:08:42;;;;;;;7.18;1.95;;;11.90;99.90;;;;;;5043570;28;20047;-89
2022/06/07 07:11:11;;;;;;;8.43;1.75;;;11.90;99.90;;;;;;5053018;28;20083;-86
2022/06/07 07:13:38;;;;;;;12.23;3.08;;;11.90;99.90;;;;;;5051950;28;20055;-89
2022/06/07 07:16:07;;;;;;;5.32;1.55;;;11.90;99.90;;;;;;5068106;28;20048;-89
2022/06/07 07:18:32;;;;;;;12.18;2.38;;;12.00;99.90;;;;;;5053383;28;20044;-88
2022/06/07 07:21:01;;;;;;;11.52;1.75;;;12.00;99.90;;;;;;5051793;28;20044;-87
2022/06/07 07:23:27;;;;;;;11.70;2.30;;;12.10;99.90;;;;;;5062039;28;20044;-90
2022/06/07 07:25:59;;;;;;;11.52;1.70;;;12.10;99.90;;;;;;5069420;28;20396;-88
2022/06/07 07:28:25;;;;;;;9.20;2.30;;;12.20;99.90;;;;;;5063883;28;20049;-90
2022/06/07 07:30:58;;;;;;;10.52;2.10;;;12.30;99.90;;;;;;5068934;28;20037;-87
2022/06/07 07:33:23;;;;;;;8.73;1.70;;;12.30;99.90;;;;;;5071763;28;20079;-87
2022/06/07 07:35:49;;;;;;;9.68;1.90;;;12.40;99.90;;;;;;5074539;28;20091;-89
2022/06/07 07:38:15;;;;;;;7.93;1.65;;;12.50;99.90;;;;;;5076017;28;20079;-87
2022/06/07 07:40:41;;;;;;;5.13;1.58;;;12.60;99.90;;;;;;5076215;28;20051;-92
2022/06/07 07:43:09;;;;;;;9.13;2.10;;;12.70;99.90;;;;;;5073789;28;20048;-86
2022/06/07 07:45:36;;;;;;;8.95;3.17;;;12.70;99.90;;;;;;5075936;28;20056;-85
2022/06/07 07:48:02;;;;;;;6.38;2.17;;;12.90;99.90;;;;;;5058388;28;20049;-86
2022/06/07 07:50:28;;;;;;;11.05;2.45;;;12.90;99.90;;;;;;5054545;28;20119;-87
2022/06/07 07:52:56;;;;;;;9.10;2.58;;;13.00;99.90;;;;;;5056778;28;20037;-89
2022/06/07 07:55:22;;;;;;;9.57;2.33;;;13.00;99.90;;;;;;5072534;28;20041;-88
2022/06/07 07:57:47;;;;;;;11.73;2.42;;;13.10;99.90;;;;;;5054104;28;20044;-85
2022/06/07 08:00:14;;;;;;;13.88;2.47;;;13.10;99.90;;;;;;5055458;28;20562;-86
2022/06/07 08:02:39;;;;;;;11.93;2.67;;;13.20;99.90;;;;;;5055647;28;20098;-86
2022/06/07 08:05:06;;;;;;;7.47;2.45;;;13.20;99.90;;;;;;5064327;28;20052;-85
2022/06/07 08:07:32;;;;;;;6.95;2.00;;;13.30;99.90;;;;;;5076015;28;20475;-87
2022/06/07 08:10:00;;;;;;;9.65;1.95;;;13.30;99.90;;;;;;5075035;28;20057;-87
2022/06/07 08:12:27;;;;;;;6.38;1.95;;;13.40;99.90;;;;;;5063681;28;20045;-86
2022/06/07 08:14:53;;;;;;;10.13;1.90;;;13.40;99.90;;;;;;5056468;28;20071;-86
2022/06/07 08:17:18;;;;;;;6.13;2.00;;;13.50;99.90;;;;;;5065069;28;20055;-92
2022/06/07 08:19:44;;;;;;;7.78;2.67;;;13.60;99.90;;;;;;5069085;28;20029;-85
2022/06/07 08:22:11;;;;;;;6.75;1.98;;;13.70;99.90;;;;;;5056491;28;20132;-87
2022/06/07 08:24:38;;;;;;;6.70;1.70;;;13.70;99.90;;;;;;5039339;28;20052;-85
2022/06/07 08:27:04;;;;;;;10.25;2.03;;;13.80;99.90;;;;;;5055185;28;20052;-84
2022/06/07 08:29:29;;;;;;;9.60;2.60;;;13.80;99.90;;;;;;5063572;28;20129;-85
2022/06/07 08:31:55;;;;;;;8.23;1.92;;;13.90;99.90;;;;;;5074845;28;20045;-85
2022/06/07 08:39:50;;;;;;;7.38;2.13;;;14.00;99.90;;;;;;5053777;28;20055;-84
2022/06/07 08:42:34;;;;;;;8.10;1.98;;;14.00;99.90;;;;;;5070878;28;20049;-86
2022/06/07 08:45:14;;;;;;;12.02;2.10;;;14.10;99.90;;;;;;5077675;28;20045;-84
2022/06/07 08:47:41;;;;;;;10.63;1.77;;;14.70;99.90;;;;;;5072997;28;20049;-84
2022/06/07 08:50:27;;;;;;;9.05;2.03;;;14.00;99.90;;;;;;5075071;28;20055;-86
2022/06/07 08:52:57;;;;;;;10.57;1.75;;;14.00;99.90;;;;;;5073126;28;20426;-84
2022/06/07 08:55:35;;;;;;;5.63;1.33;;;14.00;99.90;;;;;;5053446;28;20511;-87
2022/06/07 08:58:14;;;;;;;12.90;2.22;;;14.00;99.90;;;;;;5055808;28;20515;-84
2022/06/07 09:00:45;;;;;;;11.70;1.83;;;13.90;99.90;;;;;;5053825;28;20369;-87
2022/06/07 09:03:46;;;;;;;13.55;2.15;;;13.90;99.90;;;;;;5057176;28;20067;-85
2022/06/07 09:06:23;;;;;;;18.15;3.15;;;14.00;99.90;;;;;;5068442;28;20053;-84
2022/06/07 09:08:57;;;;;;;7.93;1.60;;;14.10;99.90;;;;;;5074295;28;20092;-84
2022/06/07 09:14:11;;;;;;;8.98;2.15;;;14.30;99.90;;;;;;5090114;28;20500;-84
2022/06/07 09:16:40;;;;;;;10.13;2.13;;;14.50;99.90;;;;;;5063152;28;20438;-85
2022/06/07 09:19:19;;;;;;;8.50;2.10;;;14.60;99.90;;;;;;5070457;28;20127;-87
2022/06/07 09:21:45;;;;;;;12.77;2.20;;;14.70;99.90;;;;;;5072317;28;20036;-85
2022/06/07 09:24:31;;;;;;;11.15;2.42;;;14.80;99.90;;;;;;5073486;28;20036;-85
2022/06/07 09:27:25;;;;;;;12.02;1.67;;;14.80;99.90;;;;;;5073542;28;20051;-87
2022/06/07 09:29:57;;;;;;;15.75;2.67;;;14.80;99.90;;;;;;5069829;28;20075;-87
2022/06/07 09:32:27;;;;;;;12.32;2.45;;;14.70;99.90;;;;;;5054486;28;20126;-86
2022/06/07 09:34:57;;;;;;;12.07;2.20;;;14.80;99.90;;;;;;5054901;28;20043;-86
2022/06/07 09:37:38;;;;;;;14.60;2.50;;;14.80;99.90;;;;;;5085588;28;20048;-87
2022/06/07 09:40:24;;;;;;;12.88;2.45;;;14.80;99.90;;;;;;5055822;28;20045;-88
2022/06/07 09:43:13;;;;;;;11.43;2.05;;;14.80;99.90;;;;;;5073686;28;20052;-89
2022/06/07 09:45:52;;;;;;;14.85;2.05;;;14.70;99.90;;;;;;5061385;28;20136;-87
2022/06/07 09:48:27;;;;;;;10.65;2.45;;;14.70;99.90;;;;;;5054499;28;20507;-85
2022/06/07 09:51:01;;;;;;;6.55;1.45;;;14.60;99.90;;;;;;5052945;28;20049;-87
2022/06/07 09:53:53;;;;;;;11.18;1.88;;;14.60;99.90;;;;;;5053014;28;20135;-84
2022/06/07 09:56:46;;;;;;;15.73;4.38;;;14.60;99.90;;;;;;5062512;28;20063;-87
2022/06/07 09:59:31;;;;;;;8.88;1.90;;;14.60;99.90;;;;;;5072583;28;20576;-85
2022/06/07 10:02:01;;;;;;;10.65;1.95;;;14.60;99.90;;;;;;5057437;28;20080;-85
2022/06/07 10:04:33;;;;;;;12.02;2.17;;;14.60;99.90;;;;;;5053682;28;20084;-85
2022/06/07 10:07:09;;;;;;;9.98;2.35;;;14.70;99.90;;;;;;5072820;28;20055;-87
2022/06/07 10:09:41;;;;;;;7.50;1.52;;;14.70;99.90;;;;;;5062878;28;20564;-83
2022/06/07 10:12:22;;;;;;;7.60;1.80;;;14.70;99.90;;;;;;5051965;28;20060;-85
2022/06/07 10:14:50;;;;;;;9.07;1.73;;;14.80;99.90;;;;;;5052589;28;20124;-88
2022/06/07 10:17:31;;;;;;;10.93;2.67;;;14.70;99.90;;;;;;5035872;28;20049;-86
2022/06/07 10:20:31;;;;;;;15.45;3.08;;;14.70;99.90;;;;;;5063472;28;20044;-88
2022/06/07 10:23:18;;;;;;;13.52;3.00;;;14.60;99.90;;;;;;5072344;28;20040;-87
2022/06/07 10:26:02;;;;;;;8.73;1.92;;;14.60;99.90;;;;;;5071434;28;20049;-86
2022/06/07 10:28:50;;;;;;;11.45;1.83;;;14.70;99.90;;;;;;5073799;28;20048;-88
2022/06/07 10:31:39;;;;;;;12.20;2.28;;;14.80;99.90;;;;;;5069355;28;20136;-85
2022/06/07 10:34:24;;;;;;;11.48;2.15;;;15.00;99.90;;;;;;5051499;28;20506;-84
2022/06/07 10:37:17;;;;;;;11.48;1.92;;;15.20;99.90;;;;;;5053484;28;20048;-85
2022/06/07 10:39:48;;;;;;;9.05;2.67;;;15.30;99.90;;;;;;5069177;28;20110;-86
2022/06/07 10:42:36;;;;;;;10.15;1.92;;;15.40;99.90;;;;;;5052285;28;20040;-84
2022/06/07 10:45:19;;;;;;;6.65;1.55;;;15.50;99.90;;;;;;5066097;28;20392;-87
2022/06/07 10:48:07;;;;;;;8.90;2.10;;;15.50;99.90;;;;;;5071588;28;20045;-87
2022/06/07 10:50:41;;;;;;;12.15;2.15;;;15.60;99.90;;;;;;5055370;28;20041;-87
2022/06/07 10:53:28;;;;;;;;;;;15.60;99.90;;;;;;5051699;28;20045;-86
2022/06/07 10:56:32;;;;;;;13.00;2.03;;;15.60;99.90;;;;;;5072512;28;20410;-85
2022/06/07 10:59:01;;;;;;;7.70;1.90;;;15.70;99.90;;;;;;5072931;28;20192;-87
2022/06/07 11:01:41;;;;;;;11.80;2.80;;;15.80;99.90;;;;;;5065542;28;20502;-85
2022/06/07 11:10:22;;;;;;;11.32;1.30;;;15.70;99.90;;;;;;5092208;28;20186;-88
2022/06/07 11:13:18;;;;;;;10.32;2.03;;;15.70;99.90;;;;;;5058304;28;20048;-87
2022/06/07 11:15:48;;;;;;;8.55;2.75;;;15.70;99.90;;;;;;5075206;28;20052;-88
2022/06/07 11:18:20;;;;;;;8.35;1.60;;;15.70;99.90;;;;;;5077027;28;20044;-86
2022/06/07 11:21:00;;;;;;;9.55;2.00;;;15.70;99.90;;;;;;5068286;28;20045;-86
2022/06/07 11:23:44;;;;;;;15.73;2.60;;;15.70;99.90;;;;;;5055652;28;20064;-86
2022/06/07 11:26:14;;;;;;;7.93;1.63;;;15.70;99.90;;;;;;5065414;28;20040;-88
2022/06/07 11:28:40;;;;;;;10.77;1.98;;;15.80;99.90;;;;;;5075530;28;20423;-86
2022/06/07 11:31:23;;;;;;;9.02;1.70;;;15.90;99.90;;;;;;5076550;28;20036;-85
2022/06/07 11:33:52;;;;;;;13.73;1.98;;;16.10;99.90;;;;;;5076163;28;20056;-85
2022/06/07 11:36:23;;;;;;;10.55;1.83;;;16.10;99.90;;;;;;5058727;28;20048;-85
2022/06/07 11:38:56;;;;;;;9.23;1.63;;;16.20;99.90;;;;;;5055821;28;20131;-83
2022/06/07 11:41:36;;;;;;;11.38;1.85;;;16.20;99.90;;;;;;5073946;28;20047;-88
2022/06/07 11:44:03;;;;;;;11.57;1.98;;;16.20;99.90;;;;;;5074916;28;20056;-85
2022/06/07 11:46:35;;;;;;;13.43;2.65;;;16.20;99.90;;;;;;5075926;28;20040;-85
2022/06/07 11:49:20;;;;;;;9.93;1.65;;;16.10;99.90;;;;;;5075629;28;20449;-88
2022/06/07 11:51:58;;;;;;;7.30;1.83;;;16.20;99.90;;;;;;5075747;28;20041;-85
2022/06/07 11:54:45;;;;;;;9.60;2.22;;;16.10;99.90;;;;;;5058864;28;20047;-89
2022/06/07 11:57:28;;;;;;;10.00;2.00;;;16.10;99.90;;;;;;5076706;28;20048;-83
2022/06/07 12:00:18;;;;;;;8.05;1.80;;;16.00;99.90;;;;;;5073804;28;20480;-83
2022/06/07 12:02:56;;;;;;;9.63;1.70;;;15.90;99.90;;;;;;5055341;28;20053;-87
2022/06/07 12:05:26;;;;;;;12.52;1.95;;;15.80;99.90;;;;;;5060689;28;20068;-85
2022/06/07 12:08:01;;;;;;;13.32;2.00;;;15.70;99.90;;;;;;5075103;28;20029;-85
2022/06/07 12:10:40;;;;;;;8.50;1.88;;;15.60;99.90;;;;;;5066859;28;20103;-86
2022/06/07 12:16:02;;;;;;;7.63;1.85;;;15.60;99.90;;;;;;5066271;28;20052;-86
2022/06/07 12:18:28;;;;;;;6.15;2.33;;;15.70;99.90;;;;;;5074169;28;20149;-88
2022/06/07 12:21:04;;;;;;;6.82;1.52;;;15.70;99.90;;;;;;5068964;28;20090;-86
2022/06/07 12:23:34;;;;;;;8.02;1.80;;;15.80;99.90;;;;;;5075135;28;20045;-88
2022/06/07 12:26:06;;;;;;;8.38;2.05;;;15.80;99.90;;;;;;5059632;28;20041;-86
2022/06/07 12:28:40;;;;;;;6.60;1.67;;;15.80;99.90;;;;;;5054667;28;20041;-84
2022/06/07 12:31:27;;;;;;;6.93;1.58;;;15.80;99.90;;;;;;5056298;28;20055;-84
2022/06/07 12:34:02;;;;;;;11.43;2.15;;;15.80;99.90;;;;;;5071050;28;20045;-84
2022/06/07 12:36:34;;;;;;;10.00;1.73;;;15.80;99.90;;;;;;5073610;28;20076;-87
2022/06/07 12:39:11;;;;;;;7.10;1.50;;;15.80;99.90;;;;;;5073943;28;20071;-84
2022/06/07 12:41:52;;;;;;;4.40;1.40;;;15.80;99.90;;;;;;5073911;28;20036;-84
2022/06/07 12:44:25;;;;;;;3.33;1.23;;;15.70;99.90;;;;;;5074491;28;20060;-86
2022/06/07 12:46:52;;;;;;;11.43;1.92;;;15.80;99.90;;;;;;5076196;28;20068;-84
2022/06/07 12:49:26;;;;;;;13.35;2.00;;;15.80;99.90;;;;;;5068136;28;20449;-87
2022/06/07 12:52:01;;;;;;;6.10;1.90;;;15.90;99.90;;;;;;5055457;28;20045;-89
2022/06/07 12:54:28;;;;;;;14.65;3.30;;;15.80;99.90;;;;;;5043982;28;20048;-83
2022/06/07 12:56:57;;;;;;;10.40;1.70;;;15.80;99.90;;;;;;5057483;28;20044;-86
2022/06/07 12:59:29;;;;;;;12.77;1.33;;;15.90;99.90;;;;;;5073018;28;20044;-87
2022/06/07 13:01:55;;;;;;;7.45;1.83;;;16.00;99.90;;;;;;5073653;28;20040;-90
2022/06/07 13:04:29;;;;;;;10.23;1.38;;;16.20;99.90;;;;;;5074258;28;20355;-90
2022/06/07 13:07:30;;;;;;;9.10;1.77;;;16.40;99.90;;;;;;5073303;28;20052;-86
2022/06/07 13:10:05;;;;;;;11.57;1.80;;;16.60;99.90;;;;;;5055341;28;20049;-90
2022/06/07 13:12:36;;;;;;;11.30;2.63;;;16.60;99.90;;;;;;5080898;28;20048;-87
2022/06/07 13:15:12;;;;;;;11.23;2.38;;;16.50;99.90;;;;;;5067145;28;20028;-87
2022/06/07 13:17:51;;;;;;;7.45;1.65;;;16.30;99.90;;;;;;5048155;28;20052;-88
2022/06/07 13:20:34;;;;;;;12.05;2.05;;;16.20;99.90;;;;;;5058626;28;20037;-88
2022/06/07 13:23:01;;;;;;;8.55;1.70;;;16.40;99.90;;;;;;5072875;28;20044;-85
2022/06/07 13:25:32;;;;;;;7.80;1.30;;;16.50;99.90;;;;;;5072802;28;20033;-86
2022/06/07 13:28:14;;;;;;;7.00;1.83;;;16.70;99.90;;;;;;5056051;28;20507;-86
2022/06/07 13:30:43;;;;;;;8.75;1.65;;;16.80;99.90;;;;;;5073341;28;20557;-86